Terminal Aerodrome Forecast
Issued by NWS Missoula, MT

Home | Current Version | Previous Version | Text Only | Print | Product List | Glossary On
Versions: 1 2 3 4 5 6 7 8 9 10 11 12 13 14 15 16 17 18 19 20 21 22 23 24 25 26 27 28
000
FTUS45 KMSO 290520
TAFMSO
TAF
KMSO 290520Z 2906/3006 25012G22KT 6SM -RA SCT030 BKN060
     FM291200 30010KT 6SM -RA BR OVC015
     FM292100 32012G22KT 6SM -SN BR OVC020
     FM300200 34007KT P6SM VCSH OVC040=

USA.gov is the U.S. government's official web portal to all federal, state and local government web resources and services.